Terminal Aerodrome Forecast
Issued by NWS

Home | Current Version | Previous Version | Text Only | Print | Product List | Glossary On
Versions: 1 2 3 4 5 6 7 8 9 10 11 12 13 14 15 16 17 18 19 20 21 22 23 24 25 26 27 28 29 30 31 32 33 34 35 36 37 38 39 40 41 42
000
FTUS43 KDMX 261432 AAC
TAFMCW
TAF AMD
KMCW 261432Z 2615/2712 VRB05KT P6SM VCTS SCT009 SCT025CB OVC050
      TEMPO 2615/2617 36016G26KT 2SM TSRA BKN009 OVC025CB
     FM261800 14004KT 6SM BR VCSH BKN080
     FM262000 35006KT 4SM -TSRA SCT025 OVC040CB
     FM270000 02005KT P6SM BKN030=

USA.gov is the U.S. government's official web portal to all federal, state and local government web resources and services.